Left Banner
 
 

JJ Reddy Danesfort 5k, 10k and Half Marathon

Overall Results

September 15, 2019


Results by Total Timing - info@totaltiming.ie - www.totaltiming.ie
 

10KM

 
Place Last Name First Name Bib Gun Time Chip Time Pace Category Club
1 Mtinsi Trust 1073 33:46 33:46 5:26/M Open
2 Kelly James 1278 34:18 34:18 5:31/M Open CASTLECOMER AC
3 Rowe Dean 1296 34:50 34:50 5:37/M Open GOWRAN AC
4 Kearney James 1226 36:09 36:09 5:49/M M KCH
5 Deegan Paul 1289 36:19 36:19 5:51/M M GOWRAN A.C.
6 Cloake Dara 1321 36:30 36:30 5:53/M M SLANEY OLYMPIC
7 O Connor Eamon 1387 37:05 37:05 5:58/M M
8 Carney Donagh 1288 37:32 37:32 6:03/M M
9 Dermody Lauren 1381 37:37 37:37 6:03/M Open CASTLECOMER
10 Lanigan Dermot 1118 37:51 36:40 6:06/M M
11 Walsh Adele 1047 37:59 37:59 6:07/M Open ADELE'S EAT TRAIN LIVE
12 Ryan David 1358 38:42 38:42 6:14/M M
13 Lawlor David 1335 39:48 39:48 6:24/M M KILKENNY CITY HARRIERS
14 Dewberry Johann 1357 40:21 40:20 6:30/M M
15 Hanlon Mike 1190 40:28 40:27 6:31/M M
16 Fennelly Philip 1367 41:03 41:01 6:37/M M KINGS RIVER
17 Geoghegan Thomas 1187 41:09 41:09 6:37/M M CIVIL SERVICE HARRIERS
18 Minogue Clive 1158 41:19 41:16 6:39/M M THOMASTOWN
19 Fennelly Vivion 1090 41:21 41:21 6:39/M M KINGS RIVER AC
20 Obara Peter 1268 41:32 41:32 6:41/M M
21 Cunningham Adrian 1153 41:37 41:33 6:42/M M GOWRAN AC
22 Flood Paul 1362 42:00 41:59 6:46/M M KILKENNY TRIATHLON CLUB
23 Power Shane 1302 42:26 42:26 6:50/M M
24 Fleming Francis 1202 42:30 42:28 6:50/M M ST ABBANS
25 Dermody Claire 1244 42:30 42:28 6:51/M Open KILKENNY CITY HARRIERS
 
 
Place Last Name First Name Bib Gun Time Chip Time Pace Category Club
26 Maher Noel 1347 42:49 42:47 6:54/M M KCH
27 Bolger Kenny Monique 1076 43:15 42:02 6:58/M F RUNDERMOT
28 Kelly Rachel 1077 43:15 42:02 6:58/M F
29 Hanrahan Andy 1126 43:32 43:32 7:01/M M KCH
30 Kavanagh Peter 1319 43:35 43:26 7:01/M M
31 Foley Caoimhe 1066 43:36 43:34 7:01/M F KILKENNY CITY HARRIERS
32 O’ Brien Denis 1380 43:43 43:39 7:02/M M
33 Costelloe Ellen 1235 43:53 43:52 7:04/M F
34 Moynihan Mick 1200 44:03 44:03 7:06/M M WATERFORD AC
35 Moylan James 1240 44:10 44:09 7:07/M M
36 Patterson Anthony 1001 44:13 44:13 7:07/M M BWEENG TRAIL BLAZERS
37 Eustace Joe 1151 44:14 44:12 7:07/M M SLI CHUALAINN
38 Grant Pat 1177 44:17 44:16 7:08/M M
39 O’neill John 1330 45:06 45:02 7:16/M M
40 English Aisling 1316 45:08 45:03 7:16/M F CLONMEL AC
41 Holland Matthew 1400 45:10 45:10 7:16/M M
42 Carroll Bill 1345 45:15 45:11 7:17/M M THOMASTOWN AC
43 Harris Brian 1255 45:28 45:25 7:19/M M ADELE'S EAT TRAIN LIVE
44 Foley Gerard 1306 45:31 45:31 7:20/M M
45 Enright John 1023 45:46 45:37 7:22/M M
46 Farrell Jannet 1370 46:04 46:03 7:25/M F
47 Power Kieran 1252 46:04 45:43 7:25/M M
48 Moran John 1391 46:07 46:05 7:25/M M
49 Raggett John 1165 46:09 46:08 7:26/M M
50 Lentijo Ivan 1377 46:25 46:19 7:28/M M
 
 
Place Last Name First Name Bib Gun Time Chip Time Pace Category Club
51 O'Neill Mark 1064 46:26 46:19 7:29/M M
52 Breathnach Eoin 1006 46:32 46:25 7:29/M M
53 O’connell Kevin 1242 46:34 46:28 7:30/M M
54 Walsh Claire 1157 46:44 46:39 7:31/M F
55 Cowley Robert 1338 47:12 46:42 7:36/M M KILKENNY TRIATHLON CLUB
56 Redmond Colin 1092 47:19 47:17 7:37/M M
57 Mc Gauley Rob 1241 47:30 47:25 7:39/M M
58 Balalis Denis 1403 47:35 47:28 7:40/M M
59 Mc Mahon Brian 1103 47:41 47:25 7:41/M M KING'S RIVER A.C.
60 Gabhann Conor Mac 1141 47:51 47:46 7:42/M M KCH
61 O’neill Stella 1254 47:51 47:48 7:42/M F
62 Ormrod Rachel 1253 48:03 48:02 7:44/M F RAHENY SHAMROCKS AC
63 Nugent Thomas 1146 48:07 47:57 7:45/M M
64 Calnan Brian 1232 48:10 47:51 7:45/M M
65 Lennon Irene 1315 48:12 48:09 7:46/M F ADELE'S EAT TRAIN LIVE
66 Deacon Warren 1395 48:15 47:39 7:46/M M
67 Large Fiona 1385 48:21 48:21 7:47/M F
68 Mason Brendan 1124 48:35 48:23 7:49/M M
69 Forristal David 1113 48:39 48:33 7:50/M M KING'S RIVER A.C.
70 Woods Patrick 1025 48:40 48:37 7:50/M M
71 Lee Robert 1164 48:46 48:40 7:51/M M
72 Whelan Niamh 1140 48:50 48:47 7:52/M F
73 Hickey Emer 1350 48:57 48:53 7:53/M F KINGS RIVER AC
74 Dunne Helena 1266 49:00 48:41 7:53/M F
75 Dillon Keane Katie 1206 49:01 48:54 7:54/M F
 
 
Place Last Name First Name Bib Gun Time Chip Time Pace Category Club
76 Kervick Dale 1233 49:06 48:48 7:54/M M
77 O Callaghan Joe 1176 49:11 49:02 7:55/M M
78 O Neill Ger 1067 49:32 49:26 7:59/M M YOU CAN TOO
79 Brennan Dean 1258 49:36 49:14 7:59/M M
80 Obara Evelyn 1269 49:42 49:42 8:00/M F
81 O'Keeffe Andy 1407 49:42 49:28 8:00/M M
82 Dack Derek 1138 49:55 49:49 8:02/M M
83 O' Hara Edel 1071 50:00 49:57 8:03/M F
84 Cleary Aoife 1361 50:00 49:57 8:03/M F THOMASTOWN AC
85 Kiely Ivan 1318 50:00 49:37 8:03/M M
86 Doherty Michelle 1026 50:10 50:07 8:05/M F
87 Kavanagh Lillian 1207 50:21 50:09 8:06/M F
88 Feely Colin 1404 50:22 49:50 8:07/M M
89 Dillon Margaret 1197 50:28 50:23 8:08/M F CASTLECOMER AC
90 Maher Brendan 1247 50:42 50:31 8:10/M M
91 Byrne Alice 1127 50:52 50:48 8:11/M F
92 Seymour Marina 1108 50:55 50:54 8:12/M F GRANGE FERMOY AC
93 Gunning Neil 1230 50:55 50:53 8:12/M M NG FITNESS
94 Fennelly Grace 1212 51:02 50:57 8:13/M F
95 Sweeney Gary 1051 51:04 50:41 8:13/M M TEMPLEMORE A.C.
96 Holohan John 1294 51:14 50:42 8:15/M M
97 Collins William 1251 51:15 50:55 8:15/M M
98 Redmond Sandra 1308 51:16 51:00 8:15/M F
99 Power Orna 1396 51:17 51:11 8:15/M F
100 Sanderson Jessica 1160 51:24 50:46 8:17/M F
 
 
Place Last Name First Name Bib Gun Time Chip Time Pace Category Club
101 Mullins Derek 1013 51:24 51:23 8:17/M M
102 Tierney Siobhan 1323 51:26 51:19 8:17/M F CAOILTE MALONE
103 Ryan Mark 1267 51:26 51:00 8:17/M M GRAIGE BALLYCALLAN
104 McGrath Seamus 1286 51:27 51:19 8:17/M M
105 Quinlan Maurice 1231 51:28 51:08 8:17/M M
106 Hartnett Geraldine 1109 51:31 51:31 8:18/M F GRANGE FERMOY AC
107 Brennan Jonathan 1137 51:46 51:35 8:20/M M
108 Fallon Jane 1037 51:53 51:42 8:21/M F KINGS RIVER AC
109 Ayres Emma 1443 51:53 51:53 8:21/M F
110 Partic. 1389 Unknown 1389 51:55 51:55 8:22/M M
111 Partic. 1388 Unknown 1388 51:56 51:56 8:22/M M
112 Suriano Alex 1309 52:01 51:53 8:22/M M
113 Tierney John Gerard 1271 52:01 51:57 8:23/M M
114 Carroll Jason 1324 52:05 51:47 8:23/M M
115 Minogue Anne Marie 1371 52:08 51:57 8:24/M F
116 O Shea Geoff 1114 52:09 52:02 8:24/M M
117 Barcoe Tanya 1224 52:11 51:54 8:24/M F CAOILTES RUN GROUP
118 Wymberry Kieran 1328 52:17 52:04 8:25/M M
119 Butler Breda 1352 52:21 52:16 8:26/M F
120 O Shea Keith 1210 52:22 51:58 8:26/M M
121 Bolger Conor 1169 52:22 52:05 8:26/M M
122 Power Liesa O Keeffe 1084 52:25 52:25 8:26/M F
123 Meagher Rebecca 1225 52:31 52:22 8:27/M F
124 Butler Shelagh 1112 52:42 52:30 8:29/M F ADELE EAT TRAIN LIVE
125 Lynch Barry 1382 52:46 52:13 8:30/M M
 
 
Place Last Name First Name Bib Gun Time Chip Time Pace Category Club
126 O’keeffe Irma 1372 52:47 52:43 8:30/M F
127 Mason Siobhan 1123 52:48 52:36 8:30/M F
128 Ahearne Liam 1275 52:48 52:41 8:30/M M
129 Whelan James 1291 52:48 52:38 8:30/M M WHELO'S
130 Tobin Emma 1405 52:49 52:27 8:30/M F GOWRAN AC
131 Hore Pat 1184 52:55 52:44 8:31/M M WMC
132 Carroll Niamh 1132 53:04 52:48 8:33/M F
133 Murphy Conor 1017 53:09 52:46 8:33/M M
134 Doheny John 1310 53:11 52:52 8:34/M M
135 Murphy James 1154 53:11 52:42 8:34/M M
136 Doyle Adrian 1303 53:14 52:53 8:34/M M
137 O'Connor Eamon 1386 53:18 52:54 8:35/M M
138 Shanahan Bernie 1111 53:19 53:11 8:35/M F
139 Geoghegan Alan 1152 53:25 53:12 8:36/M M
140 Byrzykowski Tomasz 1162 53:31 53:05 8:37/M M
141 Mullan Kellie 1249 53:33 53:12 8:37/M F
142 Langton Karina 1292 53:40 53:17 8:38/M F ADELLES GAZELLES
143 Dermody Ann Marie 1063 53:41 53:35 8:39/M F
144 McCormack Brian 1228 53:41 53:29 8:39/M M DANESFORT
145 Dooley Michelle 1121 53:41 53:16 8:39/M F
146 Phelan Becky 1298 53:44 53:29 8:39/M F
147 Moore Niamh 1125 53:44 53:28 8:39/M F
148 Browne Caimin 1276 53:48 53:27 8:40/M M
149 Kosinski George 1325 53:54 53:37 8:41/M M
150 Van Rooyen Barbara 1339 53:58 53:42 8:41/M F
 
 
Place Last Name First Name Bib Gun Time Chip Time Pace Category Club
151 McGrath Tom 1301 53:59 53:46 8:42/M M
152 Gibbons Niall 1259 54:13 53:49 8:44/M M
153 Power Ray 1262 54:16 54:08 8:44/M M
154 Ryan Helen 1172 54:17 53:43 8:44/M F
155 MacIver Mairiann 1030 54:22 54:17 8:45/M F ADELES EAT TRAIN LIVE
156 Fowler Wayne 1193 54:22 54:12 8:45/M M
157 Whitty Simon 1366 54:23 53:59 8:45/M M TEAM JJ REDDY
158 Henebry Irene 1260 54:38 54:27 8:48/M F KILKENNY CITY HARRIERS
159 Hoey Ruth 1264 54:42 54:35 8:48/M F
160 Tideswell Julie 1313 54:43 54:29 8:49/M F CLONMEL AC
161 Kennedy Yvonne 1334 54:46 54:32 8:49/M F
162 Dillon Patrick 1168 54:52 54:40 8:50/M M DANESFORT
163 Enright Meleesa 1022 55:00 54:51 8:51/M F ADELE GAZELLES
164 Ryan Ashling 1171 55:22 54:48 8:55/M F
165 Tighe Stephen 1337 55:27 54:50 8:56/M M
166 O Brien Deirdre 1290 55:31 55:21 8:56/M F KINGS RIVER AC
167 Doyle Colette 1295 55:31 55:24 8:56/M F RUNDERMOT CASTLEDERMOT
168 Dobbyn Bridget 1099 55:39 55:22 8:58/M F GRAIGUE-BALLYCALLAN AC
169 Lynch Aileen 1375 55:46 55:37 8:59/M F
170 Mc Govern Fiona 1354 55:46 55:44 8:59/M F
171 Grace Laurence 1317 55:47 55:29 8:59/M M
172 Power Tara 1329 55:47 55:37 8:59/M F
173 Scott Joanne 1243 55:48 55:34 8:59/M F
174 O'Reilly Mags 1245 55:49 55:41 8:59/M F
175 Flynn Mary 1281 55:51 55:44 9:00/M F RUNDERMOT
 
 
Place Last Name First Name Bib Gun Time Chip Time Pace Category Club
176 Doheny Michael 1311 55:59 55:39 9:01/M M
177 Hayden Pat 1166 56:00 55:37 9:01/M M GOWRAN AC
178 Bryan Caroline 1062 56:02 55:54 9:01/M F
179 Walsh Oonagh 1219 56:16 55:50 9:04/M F
180 Murphy Catherine 1223 56:29 56:21 9:06/M F
181 Corr Brendan 1188 56:31 56:07 9:06/M M
182 Coogan Roisin 1192 56:32 56:28 9:06/M F
183 Ó Connor David 1365 56:34 56:03 9:06/M M GRAIGUE BALLYCALLAN
184 Meagher John 1272 56:34 55:56 9:07/M M
185 Manning Kevin 1273 56:35 55:55 9:07/M M
186 Phelan Richard 1211 56:38 56:16 9:07/M M
187 O'Sullivan Enda 319 56:42 56:42 9:08/M M MENAPIANS
188 Slattery Claire 1217 56:46 56:21 9:08/M F
189 Maher James 1340 56:48 56:24 9:09/M M
190 Deane James 1229 56:50 56:29 9:09/M M
191 Fraher Keith 1147 57:01 56:57 9:11/M M
192 Nugent Seamus 1091 57:06 56:46 9:12/M M KCH
193 Gallagher Grainne 1170 57:10 57:06 9:12/M F
194 Fitzpatrick John 41 57:11 56:32 9:12/M M CLONMEL TRI CLUB
195 Tynan Pauline 1134 57:18 57:02 9:13/M F ADELE GAZELLES
196 Morrissey Emer 1326 57:33 57:04 9:16/M F
197 Brannigan Ailish 1364 57:43 57:34 9:18/M F CASTLECOMER FIT FOR LIFE
198 Murphy David 1155 57:47 57:32 9:18/M M
199 Kirwad Sinead 1397 57:48 57:46 9:18/M F
200 Fox Anna 1052 57:50 57:41 9:19/M F NA
 
 
Place Last Name First Name Bib Gun Time Chip Time Pace Category Club
201 Partic. 171 Unknown 171 57:53 57:43 9:19/M M
202 Leamy Bernie 1368 57:56 57:54 9:20/M F
203 O`dwyer Roisin 1043 58:07 57:45 9:21/M F KILKENNY CITY HARRIERS
204 Devitor Rebecca 1189 58:09 58:04 9:22/M F
205 Conway Vinnie 1307 58:12 57:58 9:22/M M
206 Kennedy Declan 1216 58:15 57:37 9:23/M M SULLYS GYM
207 Shannon Colette 1085 58:26 58:05 9:25/M F FIT4LIFE KCH
208 Buckley Noel 1198 58:32 58:22 9:25/M M
209 McCarthy Sean 1406 58:33 57:51 9:26/M M
210 Partic. 1393 Unknown 1393 58:34 58:34 9:26/M M
211 Lanigan Niamh 1117 58:39 58:24 9:27/M F EAT LIVE TRAIN
212 Culleton Billy 1265 58:53 58:37 9:29/M M
213 O Brien Richard 1167 59:06 58:53 9:31/M M
214 Smith Lorna 1143 59:08 58:40 9:31/M F
215 O'Neill Cathy 1065 59:09 58:40 9:31/M F
216 Byrne David 1256 59:13 58:52 9:32/M M
217 Malone Aine 1191 59:28 58:57 9:35/M F
218 Byrne Rosanne 1280 59:30 59:08 9:35/M F ADELES GAZELLES
219 Coady Sonia 1248 59:36 59:15 9:36/M F HOTEL KILKENNY
220 Bolger Brendan 1096 59:43 59:27 9:37/M M
221 Roche Laura 1072 59:45 59:42 9:37/M F
222 Manning Emma 1355 59:48 59:08 9:38/M F
223 Austin Elizabeth 1369 59:51 59:42 9:38/M F
224 Phelan Fiona 1314 59:52 59:13 9:38/M F FIT FOR LIFE
225 O'Reilly Liz 1102 59:55 59:46 9:39/M F BALLYROAN, ABBEYLEIX & DISTRICT AC
 
 
Place Last Name First Name Bib Gun Time Chip Time Pace Category Club
226 Raftice Grace 1060 59:56 59:26 9:39/M F THE MILE MARKER
227 Murphy Bregeen 1208 59:58 59:28 9:39/M F KCH
228 Scott Deirdre 1183 59:58 59:29 9:39/M F KCH
229 Lark8N Helen 1353 1:00:01 59:43 9:40/M F
230 Jenkinson Caroline 1038 1:00:09 59:30 9:41/M F
231 Ryan Philip 1227 1:00:29 1:00:09 9:44/M M
232 Nolan Nichola 1261 1:00:29 1:00:08 9:44/M F
233 Skehan Eimear 1270 1:00:33 1:00:15 9:45/M F
234 Dunphy Carina 1174 1:00:33 1:00:16 9:45/M F
235 Raggett Lorna 1173 1:00:33 1:00:16 9:45/M F
236 Lynch Sean 1376 1:00:45 1:00:35 9:47/M M
237 Ní Dhuibhir Neasa 1445 1:00:49 1:00:24 9:48/M F
238 Battle Marion 1204 1:01:02 1:00:36 9:50/M F
239 Kitson Emma 1135 1:01:12 1:00:35 9:51/M F
240 Brennan Nicola 1349 1:01:15 1:00:46 9:52/M F
241 Barry Aoife 1097 1:01:18 1:00:50 9:52/M F KINGS RIVER AC
242 Smith Marie 1336 1:01:20 1:01:13 9:52/M F ADELE EAT TRAIN LIVE
243 Emerson Michael 1179 1:01:23 1:01:05 9:53/M M
244 Gorey Ailis 1061 1:01:35 1:01:29 9:55/M F
245 Horan Brenda 1205 1:01:43 1:01:34 9:56/M F RUNDERMOT
246 O Shea Mags 1221 1:01:52 1:01:44 9:58/M F
247 Doyle Emer 1378 1:01:55 1:01:21 9:58/M F
248 McNicholas Niall 1285 1:01:55 1:01:32 9:58/M M
249 Kavanagh Lindsay 1237 1:02:00 1:01:31 9:59/M F
250 Holden Annemarie 1379 1:02:00 1:01:45 9:59/M F KCH
 
 
Place Last Name First Name Bib Gun Time Chip Time Pace Category Club
251 Mulryan Ronan 1148 1:02:05 1:01:54 10:00/M M
252 Mahon Wong Zoë 1040 1:02:19 1:01:38 10:02/M F
253 Mathias Elaine 1086 1:02:34 1:02:04 10:04/M F
254 O Dwyer Tommy 1116 1:02:35 1:02:04 10:05/M M
255 Nicholson Emma 1106 1:02:38 1:02:28 10:05/M F RUNDERMOT
256 Flynn Adrienne 1130 1:02:43 1:02:42 10:06/M F ST.JOSEPH'S
257 Henebry Kate 1359 1:02:46 1:02:10 10:06/M F
258 Moore Breda 1356 1:02:48 1:02:29 10:07/M F
259 Dudgeon Marie 1163 1:02:49 1:02:29 10:07/M F BALLINASLOE
260 Lawton John 1327 1:02:52 1:02:39 10:07/M M
261 Egan Gráinne 1180 1:03:06 1:02:53 10:10/M F GRAIGUE BALLYCALLAN ATHLETIC CLUB
262 Fennelly Paul 1444 1:03:12 1:02:38 10:10/M M
263 Roche Niamh 1215 1:03:22 1:02:52 10:12/M F MILE MARKER
264 Kennedy Olivia 1236 1:03:32 1:03:11 10:14/M F
265 Doherty Rachel 1312 1:03:42 1:03:15 10:15/M F
266 MacIver Michelle 1029 1:03:45 1:03:18 10:16/M F ADELES EAT TRAIN LIVE
267 Moloney Sarah 1344 1:03:57 1:03:57 10:18/M F
268 Cahill Nicola 1346 1:03:57 1:03:56 10:18/M F
269 Drennnan Mary 1028 1:04:25 1:04:19 10:22/M F ADELE'S EAT TRAIN
270 Fitzgerald Shane 1082 1:04:31 1:04:12 10:23/M M
271 Ahearne Ann 1105 1:04:32 1:04:02 10:23/M F
272 Egan Aisling 1333 1:04:34 1:04:00 10:24/M F
273 McLernon Alex 1178 1:04:34 1:04:15 10:24/M F
274 Mullen Liz 1012 1:04:40 1:04:23 10:25/M F
275 Casey Maria 1320 1:04:40 1:04:26 10:25/M F FIT FOR LIFE
 
 
Place Last Name First Name Bib Gun Time Chip Time Pace Category Club
276 Mc Meel Sharon 31 1:04:47 1:04:47 10:26/M F GARDA ATHLETIC CLUB
277 Murphy Majella 1274 1:05:22 1:04:40 10:31/M F
278 Comerford Marisa 1297 1:05:32 1:04:50 10:33/M F MAD COW RUNNERS
279 Guida Sabrina 1214 1:05:32 1:04:51 10:33/M F MAD COW RUNNERS
280 Lenane Mary 1341 1:05:51 1:05:22 10:36/M F
281 Ferrissey Catherine 1057 1:05:51 1:05:25 10:36/M F ST.LAURENCE O'TOOLE
282 Cusack Conor 1390 1:06:01 1:05:46 10:38/M M MARATHON CLUB IRELAND
283 Hurley Pat 1053 1:06:10 1:05:37 10:39/M M
284 Lillis Monica 1048 1:06:16 1:06:01 10:40/M F
285 Cox Joy 1002 1:06:36 1:06:32 10:43/M F
286 Dowling Tina 1058 1:06:38 1:06:29 10:44/M F EMERALDS
287 Sanderson Justin 1161 1:06:41 1:06:03 10:44/M M
288 Rochford Bridget 1282 1:06:57 1:06:42 10:47/M F FIT4LIFE KILKENNY CITY HARRIERS
289 Branigan Donal 1011 1:06:57 1:06:34 10:47/M M DROGHEDA AND DISTRICT AC
290 Rochford Honorah 1283 1:07:03 1:06:28 10:48/M F
291 Good Leona 1027 1:07:14 1:06:49 10:50/M F
292 Prins Jamie 1257 1:07:17 1:07:05 10:50/M M
293 Mullen Andrea 1304 1:07:21 1:06:54 10:51/M F
294 Mullen Pat 1305 1:07:22 1:06:55 10:51/M M CELTIC
295 Hedigan Margaret 1199 1:07:23 1:06:40 10:51/M F RUNDERMOT
296 Sullivan Amy 1080 1:07:37 1:07:07 10:53/M F
297 O'Mara Geraldine 1392 1:07:46 1:07:14 10:55/M F
298 Flynn Caroline 1250 1:07:54 1:07:21 10:56/M F
299 Briscoe Walsh Lucy 1094 1:08:15 1:07:45 10:59/M F
300 Cooper Jillian 1104 1:08:15 1:07:44 10:59/M F FITNESS WITH EMER
 
 
Place Last Name First Name Bib Gun Time Chip Time Pace Category Club
301 O Reilly Nora 1070 1:08:55 1:08:37 11:06/M F
302 Dixon Michelle 1332 1:08:55 1:08:37 11:06/M F
303 Ronan Eamon 1234 1:09:15 1:08:36 11:09/M M
304 Whelan Helen 1156 1:09:18 1:08:43 11:09/M F
305 Kiely Michael 1093 1:09:38 1:09:05 11:13/M M
306 O'Sullivan Liz 1348 1:09:38 1:09:29 11:13/M F FIT4LIFE CASTLECOMER
307 McEvoy Richard 1041 1:09:40 1:09:17 11:13/M M ADELES EAT TRAIN LIVE
308 Brown Ivan 1373 1:09:40 1:09:28 11:13/M M DANESFORT
309 Brennan Ann Marie 1136 1:10:02 1:09:50 11:17/M F
310 Costello Patricia 1050 1:10:33 1:10:07 11:22/M F
311 Holland Joan 1095 1:11:20 1:11:01 11:29/M F
312 Deegan Annemarie 1185 1:11:21 1:10:52 11:29/M F
313 Cunningham Sabrina 1186 1:11:32 1:11:04 11:31/M F
314 Mahon Paul 1039 1:12:18 1:11:38 11:38/M M
315 Flaherty Padraic 1007 1:12:32 1:11:55 11:41/M M GRAIGUE BALLYCALLAN AC
316 Kelly Doran Regina 1100 1:13:02 1:12:53 11:46/M F
317 Kent Liam 1089 1:13:05 1:12:46 11:46/M M
318 Mason Philomena 1145 1:13:19 1:13:05 11:48/M F
319 Hughes Carmel 1087 1:13:49 1:13:16 11:53/M F ST ABBDAMS
320 Gorman Owen 1088 1:13:49 1:13:16 11:53/M M PAULIES
321 Walshe Marina 1055 1:13:59 1:13:50 11:55/M F CASTLECOMER FIT 4 LIFE
322 Hickey Eamon 1363 1:14:04 1:13:56 11:56/M M
323 Barry Siobhan 1110 1:14:09 1:13:36 11:56/M F GRANGE FERMOY AC
324 Feeney Avril 1398 1:14:22 1:13:56 11:58/M F
325 Feeney Derek 1399 1:14:22 1:13:56 11:58/M M
 
 
Place Last Name First Name Bib Gun Time Chip Time Pace Category Club
326 Connolly Seamus 1222 1:15:48 1:15:26 12:12/M M
327 O'Toole Natasha 1142 1:16:14 1:15:49 12:17/M F
328 McCarthy Conor 1279 1:16:32 1:15:59 12:19/M M BRIDEVALE AC
329 Dowling Ann Marie 1322 1:16:54 1:16:23 12:23/M F
330 Sherry Liz 1079 1:17:35 1:16:53 12:30/M F RUNDERMOT
331 Costigan Melanie 1019 1:17:53 1:17:18 12:32/M F GRAIGUE-BALLYCALLAN
332 Kiely Patrick 1008 1:18:22 1:17:58 12:37/M M
333 Fox Lesley-Anne 1131 1:20:58 1:20:21 13:02/M F
334 Cashman Siobhan 1083 1:21:48 1:21:17 13:10/M F BRIDEVALE AC
335 Dollard Emma 1181 1:23:18 1:22:50 13:25/M F
336 Dollard Jason 1182 1:23:18 1:22:51 13:25/M M
337 Treacy Tanya 1069 1:26:09 1:25:41 13:52/M F
338 Davis Anne 1149 1:26:29 1:26:11 13:55/M F
339 O'Shea Eileen 1150 1:26:29 1:26:11 13:55/M F
340 Mc Grath Martina 1360 1:27:54 1:27:26 14:09/M F FIT4LIFE KCH
341 O'Reily Louise 1218 1:27:54 1:27:27 14:09/M F
342 Browne Josephine 1401 1:29:03 1:28:21 14:20/M F
343 Ryan Geraldine 1003 1:30:21 1:29:49 14:33/M F
344 O'Farrell Joan 1220 1:30:22 1:29:49 14:33/M F
345 Everard Carmel 1394 1:32:10 1:31:34 14:50/M F
346 Wall Ciara 1402 1:32:11 1:31:34 14:51/M F
347 Corey Denis 1408 1:42:32 1:42:32 16:31/M M
348 Corey Marie 1409 1:42:36 1:42:36 16:31/M F